Ezel, KY

7:35 AM EDT on July 27, 2016 (GMT -0400)
Cave Run Lake, Morehead KY | | Change Station

Elev 751 ft 38.10 °N, 83.51 °W | Updated 15 seconds ago

Mostly Cloudy
Mostly Cloudy
74.3 °F
Feels Like 71 °F
N
3.2
Wind Variable Wind from ESE
Gusts 3.7 mph

Today
High -- | Low -- °F
--% Chance of Precip.
Yesterday
High -- | Low -- °F
Precip. -- in
Pressure 29.99 in
Visibility 6.0 miles
Clouds Mostly Cloudy 11000 ft
Heat Index 71 °F
Dew Point 74 °F
Humidity 99%
Rainfall 0.00 in
Snow Depth Not available.
6:33 AM 8:46 PM
Last Quarter, 44% visible
METAR KJKL 271053Z AUTO 00000KT 6SM BR BKN110 23/22 A3004 RMK AO2 SLP155 T02280217
Pressure 29.99 in
Visibility 6.0 miles
Clouds Mostly Cloudy 11000 ft
Heat Index 71 °F
Dew Point 74 °F
Humidity 99%
Rainfall 0.00 in
Snow Depth Not available.
6:33 AM 8:46 PM
Last Quarter, 44% visible
METAR KJKL 271053Z AUTO 00000KT 6SM BR BKN110 23/22 A3004 RMK AO2 SLP155 T02280217

10-Day Weather Forecast

Almanac

Astronomy

Jul. 27, 2016 Rise Set
Actual Time
Civil Twilight
Nautical Twilight
Astronomical Twilight
Moon
Length of Visible Light
Length of Day
Tomorrow will be .
, % of the Moon is Illuminated

Today's Extremes

State Highs State Lows

Community

WunderPhotos

Upload Photos

1,927,828 photos uploaded!

WunderBlog® & News

Nearby

Air Quality

  Air Quality AQ Index Pollutant
Not available.

Snow Depth

Station Depth Elevation

Earthquake Activity

City Distance Mag. Time & Date
Minimum magnitude displayed is 2.5.

Coastal Water Temperatures

Place Temperature

Stations

Nearby Weather Stations

Station Location Temp. Windchill Dew Point Humidity Wind Precip. Elev Updated Type
                   

Watches & Warnings

There are currently no watches in effect.